createdAt,value
2023-02-23T00:00:21.197Z,6.17
2023-02-23T00:01:25.293Z,6.17
2023-02-23T00:02:29.446Z,6.16
2023-02-23T00:03:33.645Z,6.13
2023-02-23T00:04:37.858Z,6.14
2023-02-23T00:05:42.132Z,6.12
2023-02-23T00:06:46.388Z,6.12
2023-02-23T00:07:50.483Z,6.10
2023-02-23T00:08:54.716Z,6.07
2023-02-23T00:09:58.892Z,6.06
2023-02-23T00:11:03.126Z,6.05
2023-02-23T00:12:07.339Z,6.04
2023-02-23T00:13:11.534Z,6.04
2023-02-23T00:14:15.700Z,6.03
2023-02-23T00:15:19.953Z,6.01
2023-02-23T00:16:24.169Z,6.00
2023-02-23T00:17:28.349Z,5.99
2023-02-23T00:18:32.418Z,5.97
2023-02-23T00:19:36.639Z,5.96
2023-02-23T00:20:40.888Z,5.95
2023-02-23T00:21:45.945Z,5.94
2023-02-23T00:22:49.650Z,5.95
2023-02-23T00:23:53.923Z,5.94
2023-02-23T00:24:58.002Z,5.95
2023-02-23T00:26:02.380Z,5.96
2023-02-23T00:27:06.557Z,5.97
2023-02-23T00:28:10.633Z,5.95
2023-02-23T00:29:14.898Z,5.92
2023-02-23T00:30:19.125Z,5.92
2023-02-23T00:31:23.560Z,5.91
2023-02-23T00:32:27.672Z,5.91
2023-02-23T00:33:31.783Z,5.92
2023-02-23T00:34:35.979Z,5.90
2023-02-23T00:35:40.177Z,5.90
2023-02-23T00:36:44.429Z,5.89
2023-02-23T00:37:48.651Z,5.90
2023-02-23T00:38:55.874Z,5.88
2023-02-23T00:39:59.222Z,5.86
2023-02-23T00:41:03.488Z,5.86
2023-02-23T00:42:07.522Z,5.86
2023-02-23T00:43:11.717Z,5.86
2023-02-23T00:44:15.865Z,5.84
2023-02-23T00:45:20.194Z,5.83
2023-02-23T00:46:24.357Z,5.82
2023-02-23T00:47:28.547Z,5.81
2023-02-23T00:48:32.566Z,5.78
2023-02-23T00:49:36.848Z,5.77
2023-02-23T00:50:41.072Z,5.77
2023-02-23T00:51:45.377Z,5.77
2023-02-23T00:52:49.538Z,5.78
2023-02-23T00:53:53.714Z,5.79
2023-02-23T00:54:57.929Z,5.78
2023-02-23T00:56:02.159Z,5.78
2023-02-23T00:57:06.363Z,5.78
2023-02-23T00:58:10.432Z,5.78
2023-02-23T00:59:14.680Z,5.78
2023-02-23T01:00:18.904Z,5.79
2023-02-23T01:01:23.062Z,5.79
2023-02-23T01:02:27.279Z,5.78
2023-02-23T01:03:31.464Z,5.77
2023-02-23T01:04:35.578Z,5.76
2023-02-23T01:05:39.752Z,5.75
2023-02-23T01:06:43.992Z,5.76
2023-02-23T01:07:48.219Z,5.76
2023-02-23T01:08:52.460Z,5.76
2023-02-23T01:09:56.615Z,5.77
2023-02-23T01:11:00.793Z,5.78
2023-02-23T01:12:05.016Z,5.79
2023-02-23T01:13:09.232Z,5.77
2023-02-23T01:14:13.325Z,5.78
2023-02-23T01:15:17.606Z,5.77
2023-02-23T01:16:21.730Z,5.76
2023-02-23T01:17:26.044Z,5.77
2023-02-23T01:18:30.113Z,5.78
2023-02-23T01:19:34.310Z,5.76
2023-02-23T01:20:38.540Z,5.75
2023-02-23T01:21:42.733Z,5.74
2023-02-23T01:22:46.947Z,5.73
2023-02-23T01:23:51.164Z,5.72
2023-02-23T01:24:55.461Z,5.72
2023-02-23T01:25:59.431Z,5.72
2023-02-23T01:27:03.703Z,5.71
2023-02-23T01:28:07.878Z,5.70
2023-02-23T01:29:12.110Z,5.70
2023-02-23T01:30:16.367Z,5.69
2023-02-23T01:31:20.872Z,5.69
2023-02-23T01:32:24.711Z,5.70
2023-02-23T01:33:28.739Z,5.71
2023-02-23T01:34:32.979Z,5.71
2023-02-23T01:35:37.150Z,5.70
2023-02-23T01:36:41.466Z,5.70
2023-02-23T01:37:45.615Z,5.70
2023-02-23T01:38:49.852Z,5.71
2023-02-23T01:39:53.881Z,5.71
2023-02-23T01:40:58.066Z,5.71
2023-02-23T01:42:02.294Z,5.70
2023-02-23T01:43:06.434Z,5.69
2023-02-23T01:44:10.655Z,5.68
2023-02-23T01:45:14.875Z,5.68
2023-02-23T01:46:19.019Z,5.68
2023-02-23T01:47:23.174Z,5.68
2023-02-23T01:48:27.398Z,5.70
2023-02-23T01:49:31.621Z,5.70
2023-02-23T01:50:35.780Z,5.70
2023-02-23T01:51:40.011Z,5.71
2023-02-23T01:52:44.241Z,5.72
2023-02-23T01:53:48.449Z,5.73
2023-02-23T01:54:52.626Z,5.72
2023-02-23T01:55:56.724Z,5.73
2023-02-23T01:57:01.055Z,5.71
2023-02-23T01:58:05.130Z,5.70
2023-02-23T01:59:09.204Z,5.67
2023-02-23T02:00:13.465Z,5.66
2023-02-23T02:01:18.199Z,5.66
2023-02-23T02:02:21.884Z,5.67
2023-02-23T02:03:26.075Z,5.66
2023-02-23T02:04:30.212Z,5.65
2023-02-23T02:05:34.359Z,5.64
2023-02-23T02:06:38.678Z,5.64
2023-02-23T02:07:42.897Z,5.65
2023-02-23T02:08:46.979Z,5.66
2023-02-23T02:09:51.231Z,5.67
2023-02-23T02:10:55.340Z,5.68
2023-02-23T02:11:59.554Z,5.70
2023-02-23T02:13:03.675Z,5.72
2023-02-23T02:14:07.904Z,5.73
2023-02-23T02:15:12.073Z,5.75
2023-02-23T02:16:16.324Z,5.77
2023-02-23T02:17:20.393Z,5.80
2023-02-23T02:18:24.579Z,5.80
2023-02-23T02:19:28.724Z,5.80
2023-02-23T02:20:33.117Z,5.79
2023-02-23T02:21:37.179Z,5.79
2023-02-23T02:22:41.470Z,5.78
2023-02-23T02:23:45.856Z,5.77
2023-02-23T02:24:49.956Z,5.74
2023-02-23T02:25:54.149Z,5.72
2023-02-23T02:26:58.230Z,5.71
2023-02-23T02:28:02.493Z,5.70
2023-02-23T02:29:06.775Z,5.70
2023-02-23T02:30:10.781Z,5.70
2023-02-23T02:31:16.017Z,5.71
2023-02-23T02:32:19.646Z,5.71
2023-02-23T02:33:23.726Z,5.72
2023-02-23T02:34:27.989Z,5.72
2023-02-23T02:35:32.317Z,5.71
2023-02-23T02:36:36.468Z,5.70
2023-02-23T02:37:40.548Z,5.70
2023-02-23T02:38:44.770Z,5.70
2023-02-23T02:39:48.978Z,5.72
2023-02-23T02:40:53.422Z,5.74
2023-02-23T02:41:57.470Z,5.75
2023-02-23T02:43:01.553Z,5.76
2023-02-23T02:44:05.795Z,5.77
2023-02-23T02:45:10.057Z,5.78
2023-02-23T02:46:14.229Z,5.78
2023-02-23T02:47:18.407Z,5.78
2023-02-23T02:48:22.487Z,5.76
2023-02-23T02:49:26.769Z,5.75
2023-02-23T02:50:30.890Z,5.71
2023-02-23T02:51:35.221Z,5.70
2023-02-23T02:52:39.219Z,5.70
2023-02-23T02:53:43.500Z,5.72
2023-02-23T02:54:47.563Z,5.75
2023-02-23T02:55:51.910Z,5.78
2023-02-23T02:56:56.003Z,5.83
2023-02-23T02:58:00.267Z,5.85
2023-02-23T02:59:04.448Z,5.85
2023-02-23T03:00:08.693Z,5.86
2023-02-23T03:01:12.958Z,5.86
2023-02-23T03:02:17.048Z,5.85
2023-02-23T03:03:21.152Z,5.85
2023-02-23T03:04:25.447Z,5.84
2023-02-23T03:05:29.691Z,5.84
2023-02-23T03:06:33.867Z,5.83
2023-02-23T03:07:38.070Z,5.84
2023-02-23T03:08:42.262Z,5.87
2023-02-23T03:09:46.463Z,5.89
2023-02-23T03:10:50.753Z,5.91
2023-02-23T03:11:54.896Z,5.89
2023-02-23T03:12:59.004Z,5.87
2023-02-23T03:14:03.284Z,5.85
2023-02-23T03:15:07.487Z,5.85
2023-02-23T03:16:11.747Z,5.84
2023-02-23T03:17:15.964Z,5.82
2023-02-23T03:18:20.236Z,5.80
2023-02-23T03:19:24.384Z,5.80
2023-02-23T03:20:28.575Z,5.81
2023-02-23T03:21:32.768Z,5.82
2023-02-23T03:22:36.998Z,5.82
2023-02-23T03:23:41.222Z,5.83
2023-02-23T03:24:45.404Z,5.83
2023-02-23T03:25:49.505Z,5.86
2023-02-23T03:26:53.746Z,5.87
2023-02-23T03:27:57.961Z,5.89
2023-02-23T03:29:02.168Z,5.91
2023-02-23T03:30:06.500Z,5.91
2023-02-23T03:31:10.507Z,5.91
2023-02-23T03:32:14.882Z,5.91
2023-02-23T03:33:19.055Z,5.90
2023-02-23T03:34:23.235Z,5.85
2023-02-23T03:35:27.414Z,5.84
2023-02-23T03:36:31.611Z,5.85
2023-02-23T03:37:35.794Z,5.85
2023-02-23T03:38:39.977Z,5.84
2023-02-23T03:39:44.220Z,5.83
2023-02-23T03:40:48.398Z,5.81
2023-02-23T03:41:52.630Z,5.81
2023-02-23T03:42:56.828Z,5.77
2023-02-23T03:44:01.012Z,5.76
2023-02-23T03:45:05.198Z,5.77
2023-02-23T03:46:09.401Z,5.77
2023-02-23T03:47:13.625Z,5.77
2023-02-23T03:48:17.703Z,5.80
2023-02-23T03:49:22.008Z,5.81
2023-02-23T03:50:26.206Z,5.80
2023-02-23T03:51:30.436Z,5.80
2023-02-23T03:52:34.634Z,5.80
2023-02-23T03:53:41.881Z,5.77
2023-02-23T03:54:45.181Z,5.76
2023-02-23T03:55:49.354Z,5.75
2023-02-23T03:56:53.585Z,5.75
2023-02-23T03:57:57.704Z,5.76
2023-02-23T03:59:01.917Z,5.79
2023-02-23T04:00:06.058Z,5.81
2023-02-23T04:01:10.307Z,5.82
2023-02-23T04:02:14.487Z,5.79
2023-02-23T04:03:18.782Z,5.78
2023-02-23T04:04:22.825Z,5.78
2023-02-23T04:05:27.122Z,5.79
2023-02-23T04:06:31.316Z,5.80
2023-02-23T04:07:35.519Z,5.80
2023-02-23T04:08:39.769Z,5.77
2023-02-23T04:09:43.958Z,5.76
2023-02-23T04:10:48.222Z,5.75
2023-02-23T04:11:52.355Z,5.75
2023-02-23T04:12:56.599Z,5.76
2023-02-23T04:14:00.679Z,5.76
2023-02-23T04:15:04.943Z,5.76
2023-02-23T04:16:09.210Z,5.75
2023-02-23T04:17:13.241Z,5.74
2023-02-23T04:18:17.606Z,5.73
2023-02-23T04:19:21.724Z,5.73
2023-02-23T04:20:26.091Z,5.74
2023-02-23T04:21:30.412Z,5.75
2023-02-23T04:22:34.449Z,5.76
2023-02-23T04:23:38.626Z,5.76
2023-02-23T04:24:42.835Z,5.77
2023-02-23T04:25:47.038Z,5.79
2023-02-23T04:26:51.214Z,5.82
2023-02-23T04:27:55.429Z,5.83
2023-02-23T04:28:59.646Z,5.85
2023-02-23T04:30:03.895Z,5.86
2023-02-23T04:31:08.053Z,5.86
2023-02-23T04:32:12.388Z,5.86
2023-02-23T04:33:16.340Z,5.86
2023-02-23T04:34:20.505Z,5.87
2023-02-23T04:35:24.787Z,5.87
2023-02-23T04:36:28.974Z,5.88
2023-02-23T04:37:33.213Z,5.88
2023-02-23T04:38:37.360Z,5.89
2023-02-23T04:39:41.486Z,5.89
2023-02-23T04:40:45.736Z,5.90
2023-02-23T04:41:49.926Z,5.87
2023-02-23T04:42:54.090Z,5.85
2023-02-23T04:43:58.317Z,5.84
2023-02-23T04:45:02.426Z,5.84
2023-02-23T04:46:06.765Z,5.81
2023-02-23T04:47:10.857Z,5.79
2023-02-23T04:48:15.086Z,5.79
2023-02-23T04:49:19.189Z,5.80
2023-02-23T04:50:23.478Z,5.77
2023-02-23T04:51:27.552Z,5.75
2023-02-23T04:52:31.794Z,5.73
2023-02-23T04:53:36.031Z,5.69
2023-02-23T04:54:40.107Z,5.68
2023-02-23T04:55:46.011Z,5.66
2023-02-23T04:56:48.675Z,5.64
2023-02-23T04:57:52.832Z,5.64
2023-02-23T04:58:57.082Z,5.64
2023-02-23T05:00:01.150Z,5.64
2023-02-23T05:01:06.340Z,5.63
2023-02-23T05:02:10.161Z,5.64
2023-02-23T05:03:14.316Z,5.65
2023-02-23T05:04:18.400Z,5.67
2023-02-23T05:05:36.572Z,5.68
2023-02-23T05:06:39.516Z,5.70
2023-02-23T05:07:43.693Z,5.72
2023-02-23T05:08:47.775Z,5.74
2023-02-23T05:11:19.483Z,5.76
2023-02-23T05:12:23.272Z,5.76
2023-02-23T05:13:27.558Z,5.77
2023-02-23T05:14:31.686Z,5.78
2023-02-23T05:15:35.886Z,5.80
2023-02-23T05:16:40.019Z,5.82
2023-02-23T05:17:44.285Z,5.83
2023-02-23T05:18:48.453Z,5.83
2023-02-23T05:19:52.670Z,5.83
2023-02-23T05:20:56.892Z,5.82
2023-02-23T05:22:01.042Z,5.82
2023-02-23T05:23:05.258Z,5.79
2023-02-23T05:24:09.384Z,5.77
2023-02-23T05:25:13.600Z,5.77
2023-02-23T05:26:17.792Z,5.77
2023-02-23T05:27:21.962Z,5.75
2023-02-23T05:28:26.165Z,5.75
2023-02-23T05:29:30.369Z,5.75
2023-02-23T05:30:34.624Z,5.75
2023-02-23T05:31:38.934Z,5.76
2023-02-23T05:32:42.966Z,5.78
2023-02-23T05:33:47.174Z,5.79
2023-02-23T05:34:51.392Z,5.81
2023-02-23T05:35:55.580Z,5.82
2023-02-23T05:36:59.778Z,5.82
2023-02-23T05:38:04.069Z,5.83
2023-02-23T05:39:08.227Z,5.83
2023-02-23T05:40:12.362Z,6.05
2023-02-23T05:41:16.805Z,5.87
2023-02-23T05:42:20.805Z,5.87
2023-02-23T05:43:25.053Z,5.87
2023-02-23T05:44:29.233Z,5.87
2023-02-23T05:45:33.443Z,5.87
2023-02-23T05:46:37.671Z,5.86
2023-02-23T05:47:41.782Z,5.84
2023-02-23T05:48:46.007Z,5.81
2023-02-23T05:49:50.184Z,5.78
2023-02-23T05:50:54.379Z,5.76
2023-02-23T05:51:58.481Z,5.74
2023-02-23T05:53:02.683Z,5.74
2023-02-23T05:54:06.929Z,5.73
2023-02-23T05:55:11.164Z,5.74
2023-02-23T05:56:15.280Z,5.74
2023-02-23T05:57:19.523Z,5.74
2023-02-23T05:58:23.638Z,5.73
2023-02-23T05:59:27.866Z,5.74
2023-02-23T06:00:32.062Z,5.74
2023-02-23T06:01:36.212Z,5.74
2023-02-23T06:02:40.521Z,5.73
2023-02-23T06:03:44.726Z,5.73
2023-02-23T06:04:48.764Z,5.72
2023-02-23T06:05:53.039Z,5.72
2023-02-23T06:07:03.263Z,5.72
2023-02-23T06:08:05.869Z,5.71
2023-02-23T06:09:10.109Z,5.71
2023-02-23T06:10:14.298Z,5.71
2023-02-23T06:11:18.720Z,5.71
2023-02-23T06:12:22.638Z,5.68
2023-02-23T06:13:26.708Z,5.65
2023-02-23T06:14:30.972Z,5.62
2023-02-23T06:15:35.239Z,5.61
2023-02-23T06:16:39.635Z,5.60
2023-02-23T06:17:43.501Z,5.61
2023-02-23T06:18:47.748Z,5.62
2023-02-23T06:19:51.956Z,5.63
2023-02-23T06:20:56.201Z,5.64
2023-02-23T06:22:00.242Z,5.65
2023-02-23T06:23:04.481Z,5.67
2023-02-23T06:24:08.649Z,5.65
2023-02-23T06:25:12.972Z,5.64
2023-02-23T06:26:17.031Z,5.64
2023-02-23T06:27:21.390Z,5.65
2023-02-23T06:28:25.461Z,5.66
2023-02-23T06:29:29.595Z,5.68
2023-02-23T06:30:33.888Z,5.68
2023-02-23T06:31:38.068Z,5.68
2023-02-23T06:32:42.213Z,5.68
2023-02-23T06:33:46.402Z,5.67
2023-02-23T06:34:50.540Z,5.68
2023-02-23T06:36:08.841Z,5.69
2023-02-23T06:37:11.896Z,5.71
2023-02-23T06:38:16.034Z,5.73
2023-02-23T06:39:20.263Z,5.76
2023-02-23T06:40:24.562Z,5.78
2023-02-23T06:41:28.687Z,5.81
2023-02-23T06:42:32.827Z,5.83
2023-02-23T06:43:37.037Z,5.85
2023-02-23T06:44:41.270Z,5.86
2023-02-23T06:45:45.496Z,5.87
2023-02-23T06:46:49.762Z,5.88
2023-02-23T06:47:53.868Z,5.89
2023-02-23T06:48:58.159Z,5.90
2023-02-23T06:50:02.290Z,5.91
2023-02-23T06:51:06.536Z,5.92
2023-02-23T06:52:10.795Z,5.93
2023-02-23T06:53:14.963Z,5.94
2023-02-23T06:54:19.173Z,5.95
2023-02-23T06:55:23.379Z,5.96
2023-02-23T06:56:41.575Z,5.97
2023-02-23T06:57:44.555Z,5.98
2023-02-23T06:58:48.467Z,5.99
2023-02-23T06:59:52.671Z,6.01
2023-02-23T07:00:56.895Z,6.02
2023-02-23T07:02:01.145Z,6.04
2023-02-23T07:03:05.315Z,6.05
2023-02-23T07:04:09.535Z,6.06
2023-02-23T07:05:13.733Z,6.07
2023-02-23T07:06:17.921Z,6.07
2023-02-23T07:07:22.125Z,6.07
2023-02-23T07:08:26.319Z,6.07
2023-02-23T07:09:30.784Z,6.07
2023-02-23T07:10:34.660Z,6.07
2023-02-23T07:11:41.832Z,6.06
2023-02-23T07:12:45.097Z,6.05
2023-02-23T07:13:49.259Z,6.05
2023-02-23T07:14:53.558Z,6.05
2023-02-23T07:15:57.670Z,6.05
2023-02-23T07:17:01.566Z,6.05
2023-02-23T07:18:05.797Z,6.05
2023-02-23T07:19:10.092Z,6.05
2023-02-23T07:20:14.226Z,6.05
2023-02-23T07:21:18.772Z,6.06
2023-02-23T07:22:22.578Z,6.06
2023-02-23T07:23:26.862Z,6.05
2023-02-23T07:24:31.099Z,6.05
2023-02-23T07:25:36.148Z,6.06
2023-02-23T07:26:39.959Z,6.06
2023-02-23T07:27:44.263Z,6.07
2023-02-23T07:28:48.363Z,6.07
2023-02-23T07:29:52.638Z,6.08
2023-02-23T07:30:56.880Z,6.10
2023-02-23T07:32:01.118Z,6.11
2023-02-23T07:33:05.116Z,6.12
2023-02-23T07:34:09.399Z,6.12
2023-02-23T07:35:13.581Z,6.13
2023-02-23T07:36:17.857Z,6.14
2023-02-23T07:37:21.971Z,6.14
2023-02-23T07:38:26.303Z,6.14
2023-02-23T07:39:30.449Z,6.13
2023-02-23T07:40:34.697Z,6.13
2023-02-23T07:41:38.834Z,6.12
2023-02-23T07:42:43.023Z,6.12
2023-02-23T07:43:47.186Z,6.13
2023-02-23T07:44:51.384Z,6.13
2023-02-23T07:45:55.774Z,6.14
2023-02-23T07:46:59.914Z,6.14
2023-02-23T07:48:04.085Z,6.15
2023-02-23T07:49:08.302Z,6.15
2023-02-23T07:50:12.571Z,6.16
2023-02-23T07:51:17.140Z,6.17
2023-02-23T07:52:20.928Z,6.18
2023-02-23T07:53:25.145Z,6.18
2023-02-23T07:54:29.360Z,6.18
2023-02-23T07:55:33.573Z,6.17
2023-02-23T07:56:37.771Z,6.17
2023-02-23T07:57:41.971Z,6.18
2023-02-23T07:58:46.170Z,6.20
2023-02-23T07:59:50.377Z,6.20
2023-02-23T08:00:54.599Z,6.21
2023-02-23T08:01:58.793Z,6.23
2023-02-23T08:03:02.971Z,6.23
2023-02-23T08:04:07.134Z,6.23
2023-02-23T08:05:11.301Z,6.24
2023-02-23T08:06:15.589Z,6.25
2023-02-23T08:07:19.795Z,6.26
2023-02-23T08:08:23.959Z,6.26
2023-02-23T08:09:28.190Z,6.27
2023-02-23T08:10:32.419Z,6.28
2023-02-23T08:11:36.627Z,6.27
2023-02-23T08:12:40.873Z,6.28
2023-02-23T08:13:45.051Z,6.28
2023-02-23T08:14:49.229Z,6.29
2023-02-23T08:15:53.428Z,6.30
2023-02-23T08:16:57.740Z,6.31
2023-02-23T08:18:04.979Z,6.32
2023-02-23T08:19:08.112Z,6.34
2023-02-23T08:20:12.296Z,6.35
2023-02-23T08:21:16.444Z,6.36
2023-02-23T08:22:20.664Z,6.37
2023-02-23T08:23:24.924Z,6.37
2023-02-23T08:24:29.093Z,6.38
2023-02-23T08:25:33.288Z,6.39
2023-02-23T08:26:37.533Z,6.40
2023-02-23T08:27:41.750Z,6.41
2023-02-23T08:28:45.970Z,6.43
2023-02-23T08:29:50.156Z,6.44
2023-02-23T08:30:54.488Z,6.45
2023-02-23T08:31:58.720Z,6.47
2023-02-23T08:33:02.741Z,6.48
2023-02-23T08:34:07.004Z,6.50
2023-02-23T08:35:11.183Z,6.50
2023-02-23T08:36:15.346Z,6.51
2023-02-23T08:37:19.530Z,6.53
2023-02-23T08:38:23.734Z,6.55
2023-02-23T08:39:27.938Z,6.56
2023-02-23T08:40:32.133Z,6.58
2023-02-23T08:41:36.414Z,6.59
2023-02-23T08:42:40.592Z,6.61
2023-02-23T08:43:44.779Z,6.63
2023-02-23T08:44:48.985Z,6.65
2023-02-23T08:45:53.266Z,6.66
2023-02-23T08:46:57.505Z,6.67
2023-02-23T08:48:04.721Z,6.69
2023-02-23T08:49:07.948Z,6.70
2023-02-23T08:50:12.199Z,6.72
2023-02-23T08:51:16.375Z,6.74
2023-02-23T08:52:20.679Z,6.76
2023-02-23T08:53:24.852Z,6.78
2023-02-23T08:54:29.024Z,6.80
2023-02-23T08:55:33.192Z,6.82
2023-02-23T08:56:37.419Z,6.84
2023-02-23T08:57:41.617Z,6.85
2023-02-23T08:58:45.898Z,6.87
2023-02-23T08:59:50.035Z,6.90
2023-02-23T09:00:54.305Z,6.92
2023-02-23T09:01:58.444Z,6.94
2023-02-23T09:03:02.681Z,6.97
2023-02-23T09:04:06.843Z,6.99
2023-02-23T09:05:11.201Z,7.02
2023-02-23T09:06:15.305Z,7.04
2023-02-23T09:07:19.529Z,7.08
2023-02-23T09:08:23.708Z,7.10
2023-02-23T09:09:27.929Z,7.13
2023-02-23T09:10:32.218Z,7.15
2023-02-23T09:11:36.378Z,7.17
2023-02-23T09:12:40.547Z,7.18
2023-02-23T09:13:44.864Z,7.20
2023-02-23T09:14:49.006Z,7.22
2023-02-23T09:15:53.247Z,7.24
2023-02-23T09:16:57.426Z,7.26
2023-02-23T09:18:01.624Z,7.28
2023-02-23T09:19:05.814Z,7.29
2023-02-23T09:20:10.025Z,7.30
2023-02-23T09:21:14.233Z,7.31
2023-02-23T09:22:18.489Z,7.32
2023-02-23T09:23:22.647Z,7.33
2023-02-23T09:24:26.874Z,7.33
2023-02-23T09:25:31.156Z,7.34
2023-02-23T09:26:35.350Z,7.36
2023-02-23T09:27:39.595Z,7.37
2023-02-23T09:28:43.793Z,7.38
2023-02-23T09:29:48.019Z,7.38
2023-02-23T09:30:52.214Z,7.40
2023-02-23T09:31:56.544Z,7.41
2023-02-23T09:33:00.625Z,7.43
2023-02-23T09:34:04.853Z,7.44
2023-02-23T09:35:09.086Z,7.46
2023-02-23T09:36:13.282Z,7.47
2023-02-23T09:37:17.483Z,7.48
2023-02-23T09:38:21.732Z,7.49
2023-02-23T09:39:37.338Z,7.50
2023-02-23T09:40:30.190Z,7.51
2023-02-23T09:41:34.288Z,7.52
2023-02-23T09:42:38.536Z,7.53
2023-02-23T09:43:42.753Z,7.54
2023-02-23T09:44:46.964Z,7.54
2023-02-23T09:45:51.285Z,7.54
2023-02-23T09:46:55.405Z,7.55
2023-02-23T09:47:59.777Z,7.55
2023-02-23T09:49:03.902Z,7.56
2023-02-23T09:50:08.076Z,7.57
2023-02-23T09:51:12.407Z,7.58
2023-02-23T09:52:17.066Z,7.58
2023-02-23T09:53:20.839Z,7.58
2023-02-23T09:54:25.062Z,7.56
2023-02-23T09:55:29.232Z,7.56
2023-02-23T09:56:33.416Z,7.56
2023-02-23T09:57:37.641Z,7.57
2023-02-23T09:58:41.822Z,7.59
2023-02-23T09:59:46.052Z,7.60
2023-02-23T10:00:50.283Z,7.63
2023-02-23T10:01:54.550Z,7.65
2023-02-23T10:02:58.636Z,7.67
2023-02-23T10:04:02.865Z,7.69
2023-02-23T10:05:07.197Z,7.71
2023-02-23T10:06:11.274Z,7.72
2023-02-23T10:07:15.515Z,7.73
2023-02-23T10:08:19.673Z,7.74
2023-02-23T10:09:23.993Z,7.75
2023-02-23T10:10:28.288Z,7.76
2023-02-23T10:11:32.346Z,7.79
2023-02-23T10:12:36.597Z,7.82
2023-02-23T10:13:40.868Z,7.85
2023-02-23T10:14:45.037Z,7.87
2023-02-23T10:15:49.271Z,7.90
2023-02-23T10:16:53.494Z,7.93
2023-02-23T10:17:57.718Z,7.95
2023-02-23T10:19:02.020Z,7.97
2023-02-23T10:20:06.134Z,7.99
2023-02-23T10:21:10.351Z,8.01
2023-02-23T10:22:14.637Z,8.03
2023-02-23T10:23:18.802Z,8.04
2023-02-23T10:24:29.051Z,8.05
2023-02-23T10:25:34.873Z,8.07
2023-02-23T10:26:38.091Z,8.08
2023-02-23T10:27:42.277Z,8.09
2023-02-23T10:28:46.981Z,8.10
2023-02-23T10:29:50.653Z,8.12
2023-02-23T10:30:55.087Z,8.13
2023-02-23T10:31:59.222Z,8.13
2023-02-23T10:33:03.264Z,8.13
2023-02-23T10:34:07.518Z,8.13
2023-02-23T10:35:11.899Z,8.13
2023-02-23T10:36:16.051Z,8.13
2023-02-23T10:37:20.260Z,8.13
2023-02-23T10:38:24.458Z,8.12
2023-02-23T10:39:28.665Z,8.12
2023-02-23T10:40:32.912Z,8.13
2023-02-23T10:41:37.170Z,8.15
2023-02-23T10:42:41.407Z,8.16
2023-02-23T10:43:45.552Z,8.17
2023-02-23T10:44:49.781Z,8.17
2023-02-23T10:45:53.991Z,8.16
2023-02-23T10:46:58.199Z,8.15
2023-02-23T10:48:02.413Z,8.15
2023-02-23T10:49:06.570Z,8.16
2023-02-23T10:50:10.844Z,8.17
2023-02-23T10:51:15.094Z,8.19
2023-02-23T10:52:19.399Z,8.21
2023-02-23T10:53:24.240Z,8.23
2023-02-23T10:54:28.507Z,8.25
2023-02-23T10:55:32.131Z,8.27
2023-02-23T10:56:36.460Z,8.29
2023-02-23T10:57:40.757Z,8.31
2023-02-23T10:58:45.006Z,8.35
2023-02-23T10:59:49.256Z,8.37
2023-02-23T11:00:53.421Z,8.39
2023-02-23T11:02:02.330Z,8.42
2023-02-23T11:03:01.952Z,8.45
2023-02-23T11:04:06.453Z,8.48
2023-02-23T11:05:10.470Z,8.50
2023-02-23T11:06:15.129Z,8.51
2023-02-23T11:07:18.859Z,8.51
2023-02-23T11:08:23.154Z,8.51
2023-02-23T11:09:43.893Z,8.51
2023-02-23T11:10:31.652Z,8.52
2023-02-23T11:11:35.846Z,8.52
2023-02-23T11:12:40.047Z,8.53
2023-02-23T11:14:48.522Z,8.54
2023-02-23T11:15:52.902Z,8.56
2023-02-23T11:16:57.171Z,8.57
2023-02-23T11:18:01.348Z,8.59
2023-02-23T11:19:05.641Z,8.61
2023-02-23T11:20:09.814Z,8.64
2023-02-23T11:21:14.074Z,8.66
2023-02-23T11:22:18.396Z,8.67
2023-02-23T11:23:22.550Z,8.67
2023-02-23T11:24:26.870Z,8.68
2023-02-23T11:25:31.055Z,8.69
2023-02-23T11:26:35.352Z,8.69
2023-02-23T11:27:39.501Z,8.71
2023-02-23T11:28:43.712Z,8.73
2023-02-23T11:29:48.051Z,8.75
2023-02-23T11:30:52.238Z,8.76
2023-02-23T11:31:59.568Z,8.78
2023-02-23T11:33:02.582Z,8.79
2023-02-23T11:34:06.977Z,8.79
2023-02-23T11:35:11.063Z,8.80
2023-02-23T11:36:15.462Z,8.81
2023-02-23T11:37:19.662Z,8.83
2023-02-23T11:38:23.862Z,8.83
2023-02-23T11:39:28.098Z,8.84
2023-02-23T11:40:32.348Z,8.84
2023-02-23T11:41:36.539Z,8.85
2023-02-23T11:42:40.862Z,8.85
2023-02-23T11:43:45.056Z,8.85
2023-02-23T11:44:55.283Z,8.85
2023-02-23T11:45:58.300Z,8.86
2023-02-23T11:47:02.367Z,8.86
2023-02-23T11:48:06.646Z,8.87
2023-02-23T11:49:10.795Z,8.88
2023-02-23T11:50:15.037Z,8.89
2023-02-23T11:51:19.237Z,8.90
2023-02-23T11:52:23.567Z,8.92
2023-02-23T11:53:27.710Z,8.93
2023-02-23T11:54:31.938Z,8.95
2023-02-23T11:55:36.217Z,8.97
2023-02-23T11:56:40.532Z,8.99
2023-02-23T11:57:44.674Z,9.01
2023-02-23T11:58:49.025Z,9.02
2023-02-23T11:59:53.196Z,9.03
2023-02-23T12:00:57.537Z,9.04
2023-02-23T12:02:01.738Z,9.05
2023-02-23T12:03:20.129Z,9.07
2023-02-23T12:04:23.224Z,9.08
2023-02-23T12:05:27.443Z,9.10
2023-02-23T12:06:31.675Z,9.12
2023-02-23T12:07:35.880Z,9.14
2023-02-23T12:08:40.095Z,9.17
2023-02-23T12:09:44.336Z,9.19
2023-02-23T12:10:48.670Z,9.20
2023-02-23T12:11:52.805Z,9.21
2023-02-23T12:12:57.020Z,9.22
2023-02-23T12:14:01.292Z,9.24
2023-02-23T12:15:05.670Z,9.24
2023-02-23T12:16:09.877Z,9.23
2023-02-23T12:17:14.006Z,9.24
2023-02-23T12:18:18.263Z,9.25
2023-02-23T12:19:22.595Z,9.26
2023-02-23T12:20:32.786Z,9.28
2023-02-23T12:21:35.597Z,9.30
2023-02-23T12:22:39.784Z,9.33
2023-02-23T12:23:44.030Z,9.35
2023-02-23T12:24:48.228Z,9.35
2023-02-23T12:25:52.449Z,9.35
2023-02-23T12:26:56.743Z,9.36
2023-02-23T12:28:10.358Z,9.37
2023-02-23T12:29:05.205Z,9.37
2023-02-23T12:30:09.540Z,9.36
2023-02-23T12:31:13.780Z,9.36
2023-02-23T12:32:18.140Z,9.35
2023-02-23T12:33:25.340Z,9.35
2023-02-23T12:34:28.714Z,9.35
2023-02-23T12:35:32.924Z,9.36
2023-02-23T12:36:37.274Z,9.36
2023-02-23T12:37:41.412Z,9.37
2023-02-23T12:38:48.797Z,9.37
2023-02-23T12:39:51.950Z,9.38
2023-02-23T12:40:56.193Z,9.38
2023-02-23T12:42:00.437Z,9.37
2023-02-23T12:43:04.686Z,9.36
2023-02-23T12:44:08.936Z,9.36
2023-02-23T12:45:13.174Z,9.35
2023-02-23T12:46:17.599Z,9.34
2023-02-23T12:47:21.822Z,9.33
2023-02-23T12:48:25.958Z,9.31
2023-02-23T12:49:30.185Z,9.29
2023-02-23T12:50:34.454Z,9.28
2023-02-23T12:51:38.645Z,9.27
2023-02-23T12:52:42.901Z,9.26
2023-02-23T12:53:47.236Z,9.25
2023-02-23T12:54:51.402Z,9.24
2023-02-23T12:55:55.644Z,9.23
2023-02-23T12:56:59.864Z,9.22
2023-02-23T12:58:04.104Z,9.21
2023-02-23T12:59:08.384Z,9.21
2023-02-23T13:00:12.701Z,9.20
2023-02-23T13:01:17.286Z,9.20
2023-02-23T13:02:21.081Z,9.20
2023-02-23T13:03:25.363Z,9.20
2023-02-23T13:04:29.569Z,9.19
2023-02-23T13:05:33.861Z,9.19
2023-02-23T13:06:38.061Z,9.19
2023-02-23T13:07:42.335Z,9.18
2023-02-23T13:08:46.510Z,9.16
2023-02-23T13:09:50.853Z,9.14
2023-02-23T13:10:55.150Z,9.13
2023-02-23T13:11:59.328Z,9.12
2023-02-23T13:13:05.301Z,9.11
2023-02-23T13:14:07.773Z,9.11
2023-02-23T13:15:12.002Z,9.10
2023-02-23T13:16:16.182Z,9.10
2023-02-23T13:17:20.428Z,9.09
2023-02-23T13:18:24.826Z,9.09
2023-02-23T13:19:29.827Z,9.08
2023-02-23T13:20:33.779Z,9.07
2023-02-23T13:21:37.897Z,9.07
2023-02-23T13:22:42.133Z,9.07
2023-02-23T13:23:46.482Z,9.07
2023-02-23T13:24:50.662Z,9.07
2023-02-23T13:25:54.863Z,9.07
2023-02-23T13:26:58.987Z,9.08
2023-02-23T13:28:03.303Z,9.08
2023-02-23T13:29:07.658Z,9.08
2023-02-23T13:30:11.897Z,9.07
2023-02-23T13:31:16.109Z,9.07
2023-02-23T13:32:20.364Z,9.06
2023-02-23T13:33:27.497Z,9.05
2023-02-23T13:34:28.713Z,9.04
2023-02-23T13:35:32.889Z,9.02
2023-02-23T13:36:37.071Z,9.02
2023-02-23T13:37:41.488Z,9.02
2023-02-23T13:38:45.573Z,9.00
2023-02-23T13:39:49.722Z,8.99
2023-02-23T13:40:53.992Z,8.99
2023-02-23T13:43:25.359Z,8.97
2023-02-23T13:44:29.532Z,8.96
2023-02-23T13:45:33.717Z,8.95
2023-02-23T13:46:37.945Z,8.95
2023-02-23T13:47:42.137Z,8.94
2023-02-23T13:48:56.010Z,8.93
2023-02-23T13:49:50.640Z,8.92
2023-02-23T13:50:54.915Z,8.92
2023-02-23T13:51:59.106Z,8.92
2023-02-23T13:53:17.373Z,8.92
2023-02-23T13:54:20.434Z,8.93
2023-02-23T13:55:24.586Z,8.94
2023-02-23T13:56:28.827Z,8.94
2023-02-23T13:57:33.035Z,8.93
2023-02-23T13:58:37.336Z,8.93
2023-02-23T13:59:41.642Z,8.92
2023-02-23T14:00:45.768Z,8.92
2023-02-23T14:01:50.218Z,8.92
2023-02-23T14:02:54.333Z,8.92
2023-02-23T14:03:58.501Z,8.92
2023-02-23T14:05:02.735Z,8.92
2023-02-23T14:06:06.919Z,8.92
2023-02-23T14:07:11.232Z,8.92
2023-02-23T14:08:15.515Z,8.92
2023-02-23T14:09:19.793Z,8.92
2023-02-23T14:10:23.960Z,8.92
2023-02-23T14:11:28.060Z,8.91
2023-02-23T14:12:32.328Z,8.91
2023-02-23T14:13:36.586Z,8.91
2023-02-23T14:14:40.945Z,8.92
2023-02-23T14:15:45.104Z,8.92
2023-02-23T14:16:49.398Z,8.92
2023-02-23T14:17:53.603Z,8.92
2023-02-23T14:18:57.900Z,8.91
2023-02-23T14:20:02.075Z,8.91